^^
Grace C. Lehan Memorial Weather Station Historical Data
Daily Summary for September 11, 2021 Units:  Metric    English   Both
Daily Weekly Monthly Yearly
  High: Low: Average:
Temperature: 26.6 °C 12.4 °C 19 °C
Dew Point: 16.4 °C 10.5 °C 13.4 °C
Humidity: 89.5% 48.3% 72%
Wind Speed: 6.9km/h 0km/h 0.5km/h
Wind Gust: 20.9km/h - -
Wind- - WSW
Pressure: 1020.9 hPa 1016.5 hPa -
Precipitation: 0 mm    
 
 
Tabular Data for September 11, 2021
Time Temperature Dew Point Pressure Wind Wind Speed Wind Gust Humidity Rainfall Rate (Hourly) solar
00:00 15.4 °C 10.8 °C 1016.5 hPa Calm   8 km/h 74% 0 mm 0 W/m2
00:09 15.3 °C 10.7 °C 1016.5 hPa Calm   3.2 km/h 74% 0 mm 0 W/m2
00:14 15.3 °C 10.7 °C 1016.5 hPa West 0.6 km/h 6.4 km/h 74.2% 0 mm 0 W/m2
00:19 15.2 °C 10.8 °C 1016.5 hPa West 0.8 km/h 6.4 km/h 75% 0 mm 0 W/m2
00:24 15.2 °C 10.8 °C 1016.8 hPa West 0.5 km/h 6.4 km/h 75% 0 mm 0 W/m2
00:29 15.3 °C 10.9 °C 1016.8 hPa West 0.3 km/h 6.4 km/h 75% 0 mm 0 W/m2
00:34 15.3 °C 11.1 °C 1016.8 hPa Calm   6.4 km/h 75.8% 0 mm 0 W/m2
00:39 15.3 °C 11.1 °C 1016.8 hPa Calm     75.8% 0 mm 0 W/m2
00:44 15.2 °C 11.1 °C 1016.8 hPa Calm   4.8 km/h 76% 0 mm 0 W/m2
00:49 15.2 °C 11 °C 1016.8 hPa West 0.2 km/h 4.8 km/h 76% 0 mm 0 W/m2
00:54 15.2 °C 10.9 °C 1016.8 hPa West 0.2 km/h 4.8 km/h 76% 0 mm 0 W/m2
00:59 15.1 °C 10.9 °C 1016.8 hPa West 0.2 km/h 4.8 km/h 76% 0 mm 0 W/m2
01:04 15.1 °C 10.9 °C 1016.8 hPa Calm   4.8 km/h 76% 0 mm 0 W/m2
01:09 15 °C 10.8 °C 1016.8 hPa West 0.2 km/h 3.2 km/h 76% 0 mm 0 W/m2
01:14 15 °C 10.9 °C 1016.8 hPa Calm   3.2 km/h 76.5% 0 mm 0 W/m2
01:19 15 °C 11 °C 1016.8 hPa West 0.2 km/h 3.2 km/h 77% 0 mm 0 W/m2
01:24 15 °C 11 °C 1016.8 hPa Calm   3.2 km/h 77% 0 mm 0 W/m2
01:29 15 °C 11 °C 1016.8 hPa Calm   3.2 km/h 77% 0 mm 0 W/m2
01:34 15 °C 11 °C 1016.8 hPa Calm   3.2 km/h 77% 0 mm 0 W/m2
01:39 15 °C 11.1 °C 1016.8 hPa Calm     77% 0 mm 0 W/m2
01:44 15.1 °C 11.2 °C 1016.8 hPa Calm     77.9% 0 mm 0 W/m2
01:49 15.1 °C 11.3 °C 1016.8 hPa Calm     78.2% 0 mm 0 W/m2
01:54 15 °C 11.4 °C 1017.2 hPa Calm     79% 0 mm 0 W/m2
01:59 14.9 °C 11.3 °C 1017.2 hPa Calm     79% 0 mm 0 W/m2
02:04 14.9 °C 11.3 °C 1017.2 hPa Calm     79.3% 0 mm 0 W/m2
02:09 14.8 °C 11.2 °C 1017.5 hPa Calm     79.1% 0 mm 0 W/m2
02:14 14.7 °C 11.2 °C 1017.5 hPa Calm     79.7% 0 mm 0 W/m2
02:19 14.6 °C 11.1 °C 1017.5 hPa Calm     79.3% 0 mm 0 W/m2
02:24 14.6 °C 11.2 °C 1017.5 hPa Calm     80% 0 mm 0 W/m2
02:29 14.5 °C 11.1 °C 1017.5 hPa Calm     80% 0 mm 0 W/m2
02:34 14.4 °C 11.1 °C 1017.5 hPa Calm     80% 0 mm 0 W/m2
02:39 14.4 °C 11 °C 1017.5 hPa Calm     80% 0 mm 0 W/m2
02:44 14.3 °C 11.1 °C 1017.5 hPa Calm     80.5% 0 mm 0 W/m2
02:49 14.3 °C 11.1 °C 1017.5 hPa Calm     81% 0 mm 0 W/m2
02:54 14.3 °C 11.1 °C 1017.5 hPa Calm     81% 0 mm 0 W/m2
02:59 14.2 °C 11.1 °C 1017.5 hPa Calm     81% 0 mm 0 W/m2
03:04 14.2 °C 11 °C 1017.8 hPa Calm     81% 0 mm 0 W/m2
03:09 14.2 °C 11.1 °C 1017.8 hPa Calm     81.5% 0 mm 0 W/m2
03:14 14.1 °C 11 °C 1017.8 hPa Calm     82% 0 mm 0 W/m2
03:19 13.9 °C 10.9 °C 1017.8 hPa Calm     82% 0 mm 0 W/m2
03:24 13.9 °C 11.1 °C 1017.8 hPa Calm     83% 0 mm 0 W/m2
03:29 13.8 °C 11 °C 1017.8 hPa Calm     83% 0 mm 0 W/m2
03:34 13.8 °C 11 °C 1017.8 hPa Calm     83% 0 mm 0 W/m2
03:38 13.8 °C 11.1 °C 1017.8 hPa Calm     84% 0 mm 0 W/m2
04:09 13.6 °C 11.1 °C 1018.2 hPa Calm     84.8% 0 mm 0 W/m2
04:14 13.5 °C 11.1 °C 1018.2 hPa Calm     85% 0 mm 0 W/m2
04:19 13.4 °C 11 °C 1018.2 hPa Calm     85% 0 mm 0 W/m2
04:24 13.4 °C 10.9 °C 1018.2 hPa Calm     85% 0 mm 0 W/m2
04:29 13.3 °C 10.9 °C 1018.2 hPa Calm     85.1% 0 mm 0 W/m2
04:34 13.3 °C 11 °C 1018.2 hPa Calm     86% 0 mm 0 W/m2
04:39 13.2 °C 10.9 °C 1018.2 hPa Calm     86% 0 mm 0 W/m2
04:44 13.2 °C 10.8 °C 1018.2 hPa Calm     85.1% 0 mm 0 W/m2
04:49 13.2 °C 10.8 °C 1018.5 hPa Calm     85% 0 mm 0 W/m2
04:54 13.2 °C 10.8 °C 1018.5 hPa Calm     85% 0 mm 0 W/m2
04:59 13.2 °C 10.8 °C 1018.5 hPa Calm     85% 0 mm 0 W/m2
05:04 13.2 °C 10.8 °C 1018.5 hPa Calm     85% 0 mm 0 W/m2
05:09 13.2 °C 10.7 °C 1018.5 hPa Calm     85% 0 mm 0 W/m2
05:14 13.1 °C 10.7 °C 1018.5 hPa Calm     85% 0 mm 0 W/m2
05:19 13.1 °C 10.7 °C 1018.5 hPa Calm     85.8% 0 mm 0 W/m2
05:24 13 °C 10.7 °C 1018.5 hPa Calm     86% 0 mm 0 W/m2
05:29 12.9 °C 10.7 °C 1018.5 hPa Calm     86% 0 mm 0 W/m2
05:34 12.8 °C 10.6 °C 1018.5 hPa Calm     86% 0 mm 0 W/m2
05:39 12.7 °C 10.6 °C 1018.8 hPa Calm     87% 0 mm 0 W/m2
05:44 12.7 °C 10.6 °C 1018.8 hPa Calm     87% 0 mm 0 W/m2
05:49 12.6 °C 10.5 °C 1018.8 hPa Calm     87.2% 0 mm 0 W/m2
05:54 12.6 °C 10.6 °C 1019.2 hPa Calm     88% 0 mm 0 W/m2
05:59 12.6 °C 10.6 °C 1019.2 hPa Calm     88% 0 mm 0 W/m2
06:04 12.5 °C 10.6 °C 1019.2 hPa Calm     88% 0 mm 0 W/m2
06:09 12.5 °C 10.6 °C 1019.2 hPa Calm     88% 0 mm 0 W/m2
06:14 12.4 °C 10.6 °C 1019.5 hPa Calm     88% 0 mm 0 W/m2
06:19 12.4 °C 10.6 °C 1019.5 hPa Calm     88.2% 0 mm 0 W/m2
06:24 12.5 °C 10.7 °C 1019.5 hPa Calm     88.9% 0 mm 0 W/m2
06:29 12.5 °C 10.7 °C 1019.5 hPa Calm     89% 0 mm 0 W/m2
06:34 12.5 °C 10.6 °C 1019.5 hPa Calm     88.3% 0 mm 5 W/m2
06:39 12.6 °C 10.7 °C 1019.9 hPa Calm     88.5% 0 mm 7 W/m2
06:44 12.6 °C 10.6 °C 1019.9 hPa Calm     88% 0 mm 7 W/m2
06:49 12.6 °C 10.6 °C 1019.9 hPa Calm     88% 0 mm 9 W/m2
06:54 12.6 °C 10.6 °C 1019.9 hPa Calm     88.1% 0 mm 11 W/m2
06:59 12.6 °C 10.8 °C 1019.9 hPa Calm     89% 0 mm 12 W/m2
07:04 12.6 °C 10.8 °C 1020.2 hPa Calm     89% 0 mm 14 W/m2
07:09 12.6 °C 10.9 °C 1020.2 hPa Calm     89% 0 mm 16 W/m2
07:14 12.7 °C 10.9 °C 1020.2 hPa Calm     89% 0 mm 16 W/m2
07:19 12.7 °C 10.9 °C 1020.2 hPa Calm     89% 0 mm 18 W/m2
07:24 12.7 °C 10.9 °C 1020.2 hPa Calm     89% 0 mm 19 W/m2
07:29 12.8 °C 11.1 °C 1020.5 hPa Calm     89% 0 mm 21 W/m2
07:34 12.9 °C 11.1 °C 1020.5 hPa Calm     89% 0 mm 21 W/m2
07:39 13 °C 11.3 °C 1020.2 hPa Calm     89.5% 0 mm 23 W/m2
07:44 13.1 °C 11.3 °C 1020.2 hPa Calm     89% 0 mm 23 W/m2
07:49 13.2 °C 11.3 °C 1020.2 hPa Calm     88.4% 0 mm 25 W/m2
07:54 13.3 °C 11.4 °C 1020.2 hPa Calm     88% 0 mm 26 W/m2
07:59 13.5 °C 11.6 °C 1020.2 hPa Calm     88% 0 mm 33 W/m2
08:09 13.9 °C 11.8 °C 1020.2 hPa Calm     87.2% 0 mm 40 W/m2
08:14 14.1 °C 11.9 °C 1020.2 hPa Calm     86.6% 0 mm 47 W/m2
08:19 14.3 °C 11.9 °C 1020.2 hPa Calm     86% 0 mm 53 W/m2
08:24 14.5 °C 12.1 °C 1020.2 hPa Calm   1.6 km/h 85.5% 0 mm 60 W/m2
08:29 14.8 °C 12.1 °C 1020.2 hPa Calm   1.6 km/h 84.1% 0 mm 98 W/m2
08:34 15.1 °C 12.3 °C 1020.2 hPa Calm   1.6 km/h 83.2% 0 mm 323 W/m2
08:39 15.4 °C 12.6 °C 1020.2 hPa Calm     83% 0 mm 373 W/m2
08:44 15.8 °C 12.8 °C 1020.2 hPa Calm     82.1% 0 mm 406 W/m2
08:49 16.4 °C 13.1 °C 1020.5 hPa Calm     80.8% 0 mm 424 W/m2
08:54 17 °C 13.4 °C 1020.5 hPa Calm     79.3% 0 mm 439 W/m2
08:59 17.7 °C 13.6 °C 1020.5 hPa Calm     76.8% 0 mm 457 W/m2
09:04 18.4 °C 13.7 °C 1020.5 hPa Calm     73.8% 0 mm 478 W/m2
09:06 18.9 °C 13.9 °C 1020.5 hPa Calm     72.8% 0 mm 480 W/m2
09:30 21.8 °C 15.7 °C 1020.5 hPa Calm   1.6 km/h 68% 0 mm 508 W/m2
10:00 23.9 °C 15.7 °C 1020.5 hPa Calm   8 km/h 60% 0 mm 585 W/m2
10:30 24.9 °C 15.5 °C 1020.9 hPa Calm   8 km/h 56% 0 mm 667 W/m2
11:00 26 °C 15.7 °C 1020.5 hPa Calm   11.3 km/h 53% 0 mm 721 W/m2
11:30 26.6 °C 15.3 °C 1020.5 hPa WSW 1.6 km/h 16.1 km/h 50% 0 mm 773 W/m2
12:09 25.3 °C 15.1 °C 1020.2 hPa West 1.4 km/h 6.4 km/h 53.1% 0 mm 62 W/m2
12:14 25.2 °C 15 °C 1020.2 hPa WSW 1.3 km/h 8 km/h 53% 0 mm 76 W/m2
12:19 25.2 °C 15.2 °C 1020.2 hPa West 2.9 km/h 16.1 km/h 54% 0 mm 111 W/m2
12:24 25.1 °C 15.1 °C 1020.2 hPa West 1 km/h 16.1 km/h 53.9% 0 mm 97 W/m2
12:29 24.9 °C 14.8 °C 1020.2 hPa WSW 1.9 km/h 16.1 km/h 53.2% 0 mm 111 W/m2
12:34 24.9 °C 15.1 °C 1020.2 hPa WSW 0.5 km/h 16.1 km/h 54.4% 0 mm 139 W/m2
12:39 24.9 °C 14.6 °C 1020.2 hPa WSW 6.3 km/h 20.9 km/h 52.6% 0 mm 144 W/m2
12:44 24.8 °C 14.1 °C 1020.2 hPa WSW 2.3 km/h 20.9 km/h 51.4% 0 mm 142 W/m2
12:49 24.8 °C 14.7 °C 1019.9 hPa SW 0.6 km/h 20.9 km/h 53.5% 0 mm 232 W/m2
12:54 24.8 °C 14.7 °C 1019.9 hPa SW 2.7 km/h 20.9 km/h 53.4% 0 mm 271 W/m2
12:59 24.8 °C 14.6 °C 1019.9 hPa WSW 0.2 km/h 20.9 km/h 52.8% 0 mm 243 W/m2
13:04 24.9 °C 15.2 °C 1019.9 hPa WSW 1 km/h 20.9 km/h 54.8% 0 mm 213 W/m2
13:09 25 °C 14.8 °C 1019.9 hPa WSW 1.6 km/h 11.3 km/h 53.3% 0 mm 250 W/m2
13:14 25.1 °C 14.9 °C 1019.9 hPa SW 2.6 km/h 11.3 km/h 53.3% 0 mm 220 W/m2
13:19 25.1 °C 14.8 °C 1019.5 hPa WSW 1.1 km/h 11.3 km/h 52.7% 0 mm 162 W/m2
13:24 25.2 °C 15.2 °C 1019.5 hPa WSW 0.8 km/h 14.5 km/h 53.8% 0 mm 144 W/m2
13:29 25.1 °C 14.6 °C 1019.5 hPa WSW 2.7 km/h 14.5 km/h 52.2% 0 mm 128 W/m2
13:34 25.1 °C 14.8 °C 1019.5 hPa WSW 2.7 km/h 14.5 km/h 53% 0 mm 149 W/m2
13:39 25 °C 14.4 °C 1019.5 hPa WSW 3.7 km/h 17.7 km/h 51.7% 0 mm 132 W/m2
13:44 24.9 °C 14.4 °C 1019.5 hPa WSW 1.8 km/h 17.7 km/h 52.1% 0 mm 120 W/m2
13:49 25 °C 14.9 °C 1019.5 hPa WSW 1.3 km/h 17.7 km/h 53.3% 0 mm 120 W/m2
13:54 25.1 °C 14.9 °C 1019.5 hPa SW 1 km/h 17.7 km/h 53.2% 0 mm 118 W/m2
13:59 25.2 °C 15.2 °C 1019.5 hPa WSW 0.8 km/h 17.7 km/h 53.8% 0 mm 139 W/m2
14:04 25.2 °C 14.7 °C 1019.5 hPa West 2.3 km/h 17.7 km/h 52.2% 0 mm 151 W/m2
14:09 25.2 °C 14.4 °C 1019.5 hPa WSW 2.7 km/h 12.9 km/h 51.2% 0 mm 211 W/m2
14:14 25.2 °C 15 °C 1019.2 hPa West 1.4 km/h 12.9 km/h 53.2% 0 mm 424 W/m2
14:19 25.3 °C 15 °C 1019.2 hPa West 3.1 km/h 12.9 km/h 52.8% 0 mm 594 W/m2
14:24 25.6 °C 14.6 °C 1019.2 hPa WSW 1.6 km/h 12.9 km/h 50.7% 0 mm 780 W/m2
14:29 25.7 °C 14.9 °C 1019.2 hPa WSW 2.3 km/h 12.9 km/h 51.2% 0 mm 780 W/m2
14:34 25.9 °C 15.2 °C 1019.2 hPa West 0.6 km/h 12.9 km/h 51.6% 0 mm 729 W/m2
14:39 26 °C 15.1 °C 1019.2 hPa West 1.3 km/h 6.4 km/h 50.9% 0 mm 264 W/m2
14:44 25.8 °C 14.9 °C 1018.8 hPa West 0.5 km/h 6.4 km/h 50.7% 0 mm 195 W/m2
14:48 25.7 °C 14.8 °C 1018.8 hPa West 0.5 km/h 6.4 km/h 51.1% 0 mm 867 W/m2
14:54 25.7 °C 14.9 °C 1018.8 hPa WSW 1.8 km/h 16.1 km/h 51.4% 0 mm 814 W/m2
14:59 25.8 °C 14.6 °C 1018.8 hPa SW 1.3 km/h 16.1 km/h 49.9% 0 mm 636 W/m2
15:04 25.9 °C 15 °C 1018.8 hPa SW 0.2 km/h 16.1 km/h 51% 0 mm 671 W/m2
15:09 26.1 °C 14.9 °C 1018.8 hPa SW 1.9 km/h 9.7 km/h 50.5% 0 mm 671 W/m2
15:14 26.1 °C 14.9 °C 1018.8 hPa WSW 1.6 km/h 9.7 km/h 50.1% 0 mm 696 W/m2
15:19 26.1 °C 14.9 °C 1018.8 hPa WSW 2.1 km/h 16.1 km/h 50.2% 0 mm 612 W/m2
15:24 26.2 °C 14.9 °C 1018.5 hPa WSW 5.3 km/h 16.1 km/h 50.1% 0 mm 712 W/m2
15:29 26.2 °C 15.1 °C 1018.5 hPa WNW 1.4 km/h 16.1 km/h 50.4% 0 mm 687 W/m2
15:34 26.3 °C 15.1 °C 1018.5 hPa NW 1.3 km/h 16.1 km/h 50% 0 mm 659 W/m2
15:39 26.4 °C 15.3 °C 1018.5 hPa WNW 0.5 km/h 6.4 km/h 50.5% 0 mm 619 W/m2
15:44 26.4 °C 15.2 °C 1018.5 hPa West 1.6 km/h 16.1 km/h 50.1% 0 mm 605 W/m2
15:49 26.5 °C 15.1 °C 1018.5 hPa West 3.4 km/h 16.1 km/h 49.6% 0 mm 610 W/m2
15:54 26.4 °C 15.1 °C 1018.5 hPa WSW 1.3 km/h 16.1 km/h 49.6% 0 mm 601 W/m2
15:59 26.4 °C 15.1 °C 1018.5 hPa WSW 3.1 km/h 16.1 km/h 49.8% 0 mm 570 W/m2
16:00 26.3 °C 14.7 °C 1018.2 hPa SW 6.9 km/h 16.1 km/h 49% 0 mm 62 W/m2
16:09 26.1 °C 14.3 °C 1018.2 hPa WSW 1.8 km/h 8 km/h 48.3% 0 mm 67 W/m2
16:14 25.9 °C 14.4 °C 1018.2 hPa SW 1.8 km/h 9.7 km/h 48.9% 0 mm 67 W/m2
16:19 25.7 °C 14.3 °C 1018.2 hPa SW 2.1 km/h 9.7 km/h 49.3% 0 mm 63 W/m2
16:24 25.6 °C 14.5 °C 1018.2 hPa SW 1.3 km/h 9.7 km/h 50.4% 0 mm 67 W/m2
16:29 25.4 °C 14.4 °C 1018.2 hPa West 0.8 km/h 9.7 km/h 50.5% 0 mm 67 W/m2
16:34 25.3 °C 14.3 °C 1018.2 hPa WSW 1 km/h 9.7 km/h 50.4% 0 mm 67 W/m2
16:39 25.3 °C 14.7 °C 1018.2 hPa WSW 1.1 km/h 8 km/h 52% 0 mm 76 W/m2
16:44 25.2 °C 14.7 °C 1018.2 hPa West 0.5 km/h 8 km/h 52.1% 0 mm 74 W/m2
16:49 25.1 °C 14.9 °C 1018.2 hPa West 0.6 km/h 8 km/h 53.2% 0 mm 90 W/m2
16:54 25 °C 15.1 °C 1017.8 hPa WSW 0.2 km/h 8 km/h 54.2% 0 mm 90 W/m2
16:59 24.9 °C 14.7 °C 1017.8 hPa WSW 0.6 km/h 8 km/h 53.1% 0 mm 60 W/m2
17:04 24.7 °C 14.7 °C 1017.8 hPa WSW 1.6 km/h 8 km/h 53.7% 0 mm 65 W/m2
17:09 24.6 °C 14.8 °C 1017.8 hPa WSW 1.4 km/h 11.3 km/h 54.4% 0 mm 81 W/m2
17:14 24.6 °C 14.8 °C 1017.8 hPa WSW 1.3 km/h 11.3 km/h 54.6% 0 mm 47 W/m2
17:19 24.5 °C 14.6 °C 1017.8 hPa SW 1.1 km/h 11.3 km/h 54% 0 mm 39 W/m2
17:24 24.5 °C 14.6 °C 1017.8 hPa WSW 1 km/h 11.3 km/h 54.2% 0 mm 33 W/m2
17:29 24.4 °C 14.8 °C 1017.8 hPa WSW 1.3 km/h 11.3 km/h 55% 0 mm 35 W/m2
17:34 24.4 °C 14.8 °C 1017.5 hPa WSW 2.1 km/h 11.3 km/h 55.1% 0 mm 44 W/m2
17:39 24.4 °C 14.6 °C 1017.8 hPa SW 0.3 km/h 8 km/h 54.4% 0 mm 44 W/m2
17:44 24.3 °C 14.9 °C 1017.8 hPa SW 0.2 km/h 8 km/h 55.7% 0 mm 39 W/m2
17:49 24.3 °C 14.9 °C 1017.8 hPa SW 0.3 km/h 8 km/h 55.9% 0 mm 30 W/m2
17:54 24.3 °C 14.9 °C 1017.5 hPa SW 0.2 km/h 8 km/h 55.8% 0 mm 30 W/m2
17:59 24.2 °C 14.9 °C 1017.5 hPa WSW 1 km/h 8 km/h 56.2% 0 mm 39 W/m2
18:04 24.1 °C 14.6 °C 1017.8 hPa SW 2.3 km/h 8 km/h 55.4% 0 mm 51 W/m2
18:09 23.9 °C 14.4 °C 1017.5 hPa SW 1.3 km/h 8 km/h 55.3% 0 mm 51 W/m2
18:14 23.8 °C 14.7 °C 1017.8 hPa SW 0.5 km/h 9.7 km/h 56.5% 0 mm 21 W/m2
18:15 23.8 °C 14.9 °C 1017.8 hPa SW 1.4 km/h 9.7 km/h 57.6% 0 mm 21 W/m2
18:30 23.3 °C 15.1 °C 1017.8 hPa Calm   9.7 km/h 60% 0 mm 25 W/m2
19:00 22.3 °C 15.2 °C 1017.8 hPa Calm   9.7 km/h 64% 0 mm 7 W/m2
19:30 21.5 °C 15.3 °C 1017.8 hPa Calm   11.3 km/h 68% 0 mm 0 W/m2
20:04 20.9 °C 15.6 °C 1018.2 hPa Calm   11.3 km/h 71.6% 0 mm 0 W/m2
20:09 20.8 °C 15.8 °C 1018.2 hPa Calm     72.7% 0 mm 0 W/m2
20:14 20.8 °C 15.7 °C 1018.2 hPa Calm     73% 0 mm 0 W/m2
20:19 20.7 °C 15.7 °C 1018.2 hPa Calm     73% 0 mm 0 W/m2
20:24 20.6 °C 15.8 °C 1018.5 hPa Calm     73.8% 0 mm 0 W/m2
20:29 20.6 °C 15.8 °C 1018.5 hPa Calm     74% 0 mm 0 W/m2
20:34 20.4 °C 15.8 °C 1018.5 hPa Calm     74.8% 0 mm 0 W/m2
20:39 20.4 °C 15.8 °C 1018.5 hPa Calm     75% 0 mm 0 W/m2
20:44 20.3 °C 15.8 °C 1018.5 hPa Calm     75.3% 0 mm 0 W/m2
20:49 20.3 °C 15.9 °C 1018.5 hPa Calm     76% 0 mm 0 W/m2
20:54 20.2 °C 15.9 °C 1018.5 hPa Calm     76.5% 0 mm 0 W/m2
20:59 20.1 °C 15.9 °C 1018.5 hPa Calm     77% 0 mm 0 W/m2
21:04 20.1 °C 15.9 °C 1018.5 hPa Calm     77% 0 mm 0 W/m2
21:09 19.9 °C 16 °C 1018.5 hPa Calm     77.9% 0 mm 0 W/m2
21:14 19.8 °C 15.9 °C 1018.5 hPa Calm     78.2% 0 mm 0 W/m2
21:19 19.8 °C 16.1 °C 1018.5 hPa Calm     79% 0 mm 0 W/m2
21:24 19.7 °C 16 °C 1018.5 hPa Calm     79.4% 0 mm 0 W/m2
21:29 19.7 °C 16.1 °C 1018.5 hPa Calm     80% 0 mm 0 W/m2
21:34 19.6 °C 16.1 °C 1018.5 hPa Calm     80.3% 0 mm 0 W/m2
21:39 19.5 °C 16.2 °C 1018.5 hPa Calm     81% 0 mm 0 W/m2
21:44 19.4 °C 16.1 °C 1018.5 hPa Calm   3.2 km/h 81% 0 mm 0 W/m2
21:49 19.3 °C 16 °C 1018.5 hPa Calm   3.2 km/h 81% 0 mm 0 W/m2
21:54 19.3 °C 16.1 °C 1018.5 hPa Calm   3.2 km/h 81.7% 0 mm 0 W/m2
21:59 19.2 °C 16.1 °C 1018.5 hPa Calm   3.2 km/h 82% 0 mm 0 W/m2
22:04 19.1 °C 15.9 °C 1018.5 hPa Calm   3.2 km/h 82% 0 mm 0 W/m2
22:09 19 °C 15.9 °C 1018.5 hPa Calm     82.5% 0 mm 0 W/m2
22:14 18.9 °C 15.9 °C 1018.5 hPa Calm     83% 0 mm 0 W/m2
22:19 18.8 °C 16.1 °C 1018.5 hPa Calm     83.9% 0 mm 0 W/m2
22:24 18.8 °C 16.1 °C 1018.5 hPa Calm     84.5% 0 mm 0 W/m2
22:29 18.8 °C 16.3 °C 1018.5 hPa Calm     85.6% 0 mm 0 W/m2
22:34 18.8 °C 16.4 °C 1018.5 hPa Calm     86% 0 mm 0 W/m2
22:39 18.8 °C 16.4 °C 1018.5 hPa Calm     86% 0 mm 0 W/m2
22:44 18.8 °C 16.4 °C 1018.5 hPa Calm     86% 0 mm 0 W/m2
22:49 18.8 °C 16.4 °C 1018.5 hPa Calm     85.9% 0 mm 0 W/m2
22:54 18.8 °C 16.3 °C 1018.5 hPa Calm     85.4% 0 mm 0 W/m2
22:59 18.7 °C 16.3 °C 1018.8 hPa Calm     86% 0 mm 0 W/m2
23:04 18.7 °C 16.3 °C 1018.5 hPa Calm     86% 0 mm 0 W/m2
23:09 18.7 °C 16.3 °C 1018.5 hPa Calm     86% 0 mm 0 W/m2
23:14 18.6 °C 16.2 °C 1018.5 hPa Calm     86% 0 mm 0 W/m2
23:19 18.5 °C 16.1 °C 1018.5 hPa Calm     86% 0 mm 0 W/m2
23:24 18.3 °C 16.1 °C 1018.8 hPa Calm     86.8% 0 mm 0 W/m2
23:29 18.2 °C 16 °C 1018.8 hPa Calm     87% 0 mm 0 W/m2
23:34 18.1 °C 16 °C 1018.8 hPa Calm     87.6% 0 mm 0 W/m2
23:39 18 °C 15.9 °C 1018.5 hPa Calm     88% 0 mm 0 W/m2
23:44 17.9 °C 15.9 °C 1018.5 hPa Calm     88% 0 mm 0 W/m2
23:49 17.8 °C 15.9 °C 1018.5 hPa Calm     89% 0 mm 0 W/m2
23:54 17.7 °C 15.9 °C 1018.5 hPa Calm     89% 0 mm 0 W/m2
23:59 17.7 °C 15.9 °C 1018.5 hPa Calm     89.2% 0 mm 0 W/m2
Hartford County Weather
Compliments of Weather Underground - 2 mb